createdAt,value
2018-03-11T00:02:21.683Z,11.63
2018-03-11T00:04:49.156Z,11.03
2018-03-11T00:07:16.604Z,8.50
2018-03-11T00:09:44.064Z,8.37
2018-03-11T00:12:11.527Z,8.40
2018-03-11T00:14:39.004Z,15.80
2018-03-11T00:17:06.557Z,8.93
2018-03-11T00:19:34.023Z,9.50
2018-03-11T00:22:01.485Z,8.10
2018-03-11T00:24:28.950Z,8.50
2018-03-11T00:26:56.421Z,9.33
2018-03-11T00:29:24.673Z,10.60
2018-03-11T00:31:52.136Z,9.33
2018-03-11T00:34:19.598Z,9.80
2018-03-11T00:36:47.074Z,9.50
2018-03-11T00:39:14.554Z,9.90
2018-03-11T00:41:42.018Z,11.87
2018-03-11T00:44:10.246Z,7.97
2018-03-11T00:46:37.712Z,8.40
2018-03-11T00:49:05.163Z,9.97
2018-03-11T00:51:32.630Z,6.67
2018-03-11T00:54:00.089Z,7.20
2018-03-11T00:56:27.552Z,12.10
2018-03-11T00:58:55.017Z,10.20
2018-03-11T01:01:23.254Z,6.67
2018-03-11T01:03:51.472Z,12.43
2018-03-11T01:06:18.954Z,10.87
2018-03-11T01:08:46.409Z,25.13
2018-03-11T01:11:13.879Z,10.17
2018-03-11T01:13:41.339Z,11.00
2018-03-11T01:16:08.813Z,9.63
2018-03-11T01:18:36.263Z,7.67
2018-03-11T01:21:03.728Z,10.27
2018-03-11T01:23:31.188Z,12.83
2018-03-11T01:25:58.644Z,8.27
2018-03-11T01:28:26.109Z,9.83
2018-03-11T01:30:53.574Z,13.20
2018-03-11T01:33:21.038Z,10.00
2018-03-11T01:35:48.495Z,7.93
2018-03-11T01:38:15.960Z,7.67
2018-03-11T01:40:43.435Z,9.83
2018-03-11T01:43:10.887Z,12.50
2018-03-11T01:45:38.347Z,9.80
2018-03-11T01:48:05.809Z,8.53
2018-03-11T01:50:33.258Z,6.60
2018-03-11T01:53:11.506Z,6.20
2018-03-11T01:55:38.956Z,5.80
2018-03-11T01:58:06.422Z,6.10
2018-03-11T02:03:33.048Z,5.90
2018-03-11T02:06:00.512Z,5.80
2018-03-11T02:08:27.985Z,5.27
2018-03-11T02:10:55.437Z,4.83
2018-03-11T02:13:22.903Z,5.47
2018-03-11T02:15:50.365Z,5.17
2018-03-11T02:18:17.821Z,5.00
2018-03-11T02:20:45.285Z,5.23
2018-03-11T02:23:12.757Z,5.13
2018-03-11T02:25:40.201Z,5.10
2018-03-11T02:28:07.684Z,5.10
2018-03-11T02:30:35.143Z,5.30
2018-03-11T02:33:02.593Z,4.80
2018-03-11T02:35:30.042Z,4.90
2018-03-11T02:37:57.517Z,4.30
2018-03-11T02:40:24.971Z,4.33
2018-03-11T02:42:53.198Z,4.60
2018-03-11T02:45:20.644Z,4.40
2018-03-11T02:48:09.911Z,3.97
2018-03-11T02:50:37.363Z,3.97
2018-03-11T02:53:04.820Z,4.20
2018-03-11T02:55:32.282Z,4.40
2018-03-11T02:57:59.737Z,4.17
2018-03-11T03:00:27.191Z,4.13
2018-03-11T03:02:54.652Z,3.80
2018-03-11T03:05:22.110Z,4.20
2018-03-11T03:07:49.567Z,3.93
2018-03-11T03:10:17.030Z,4.40
2018-03-11T03:12:44.493Z,4.30
2018-03-11T03:15:11.946Z,4.20
2018-03-11T03:17:39.443Z,4.30
2018-03-11T03:20:06.905Z,4.63
2018-03-11T03:22:34.349Z,4.30
2018-03-11T03:25:01.799Z,4.87
2018-03-11T03:27:29.249Z,4.37
2018-03-11T03:29:56.704Z,4.30
2018-03-11T03:32:24.156Z,4.13
2018-03-11T03:34:51.626Z,4.43
2018-03-11T03:37:19.089Z,4.30
2018-03-11T03:39:46.589Z,4.77
2018-03-11T03:42:14.037Z,4.57
2018-03-11T03:44:41.501Z,4.40
2018-03-11T03:47:08.961Z,4.17
2018-03-11T03:49:36.423Z,4.23
2018-03-11T03:52:03.874Z,4.00
2018-03-11T03:54:31.339Z,4.07
2018-03-11T03:56:58.781Z,3.90
2018-03-11T03:59:26.258Z,4.20
2018-03-11T04:01:53.706Z,4.87
2018-03-11T04:04:21.178Z,4.37
2018-03-11T04:06:48.635Z,4.67
2018-03-11T04:09:16.094Z,3.93
2018-03-11T04:11:43.556Z,4.27
2018-03-11T04:14:11.029Z,4.27
2018-03-11T04:16:38.477Z,4.90
2018-03-11T04:19:05.941Z,4.33
2018-03-11T04:21:33.397Z,4.97
2018-03-11T04:24:00.849Z,4.77
2018-03-11T04:26:29.063Z,4.90
2018-03-11T04:28:56.543Z,4.97
2018-03-11T04:31:23.997Z,5.10
2018-03-11T04:33:51.448Z,4.43
2018-03-11T04:36:18.928Z,4.27
2018-03-11T04:38:46.449Z,5.07
2018-03-11T04:41:14.665Z,4.80
2018-03-11T04:43:42.131Z,4.63
2018-03-11T04:46:09.592Z,4.10
2018-03-11T04:48:37.046Z,4.93
2018-03-11T04:51:04.518Z,4.03
2018-03-11T04:53:31.984Z,4.43
2018-03-11T04:55:59.443Z,4.10
2018-03-11T04:58:26.889Z,4.37
2018-03-11T05:00:54.374Z,5.00
2018-03-11T05:03:21.829Z,4.80
2018-03-11T05:05:49.293Z,4.43
2018-03-11T05:08:16.750Z,4.63
2018-03-11T05:10:44.207Z,5.13
2018-03-11T05:13:11.662Z,4.70
2018-03-11T05:15:39.121Z,5.17
2018-03-11T05:18:06.578Z,6.40
2018-03-11T05:20:34.041Z,6.27
2018-03-11T05:23:01.496Z,6.43
2018-03-11T05:25:28.965Z,6.53
2018-03-11T05:27:56.425Z,5.50
2018-03-11T05:30:23.896Z,5.90
2018-03-11T05:32:51.356Z,7.30
2018-03-11T05:35:18.816Z,11.03
2018-03-11T05:37:46.275Z,9.73
2018-03-11T05:40:13.742Z,18.57
2018-03-11T05:42:41.205Z,17.63
2018-03-11T05:45:08.677Z,20.97
2018-03-11T05:47:36.137Z,16.10
2018-03-11T05:50:03.616Z,15.93
2018-03-11T05:52:31.091Z,11.87
2018-03-11T05:54:58.541Z,11.47
2018-03-11T05:57:26.014Z,10.50
2018-03-11T05:59:53.474Z,8.70
2018-03-11T06:02:20.933Z,8.10
2018-03-11T06:04:48.388Z,7.57
2018-03-11T06:07:21.729Z,7.67
2018-03-11T06:09:49.956Z,10.00
2018-03-11T06:12:17.425Z,7.47
2018-03-11T06:14:44.873Z,7.13
2018-03-11T06:17:12.351Z,8.33
2018-03-11T06:19:39.784Z,8.90
2018-03-11T06:22:07.250Z,9.03
2018-03-11T06:24:34.714Z,6.30
2018-03-11T06:27:02.188Z,7.27
2018-03-11T06:29:46.532Z,7.90
2018-03-11T06:32:13.989Z,8.30
2018-03-11T06:34:41.446Z,7.47
2018-03-11T06:37:08.914Z,6.80
2018-03-11T06:39:36.363Z,7.17
2018-03-11T06:42:03.838Z,6.80
2018-03-11T06:44:31.283Z,6.60
2018-03-11T06:46:58.770Z,7.03
2018-03-11T06:49:26.223Z,7.00
2018-03-11T06:52:13.905Z,7.13
2018-03-11T06:54:41.353Z,6.80
2018-03-11T06:57:08.818Z,6.23
2018-03-11T07:02:30.293Z,5.80
2018-03-11T07:04:57.744Z,6.47
2018-03-11T07:07:26.884Z,5.90
2018-03-11T07:09:54.338Z,5.87
2018-03-11T07:12:21.802Z,5.80
2018-03-11T07:14:49.270Z,7.40
2018-03-11T07:17:16.716Z,6.87
2018-03-11T07:19:44.178Z,6.47
2018-03-11T07:22:11.647Z,6.40
2018-03-11T07:24:39.106Z,7.30
2018-03-11T07:27:14.574Z,5.87
2018-03-11T07:29:42.029Z,6.03
2018-03-11T07:32:09.500Z,6.57
2018-03-11T07:34:36.971Z,5.57
2018-03-11T07:37:04.433Z,6.77
2018-03-11T07:39:31.880Z,6.90
2018-03-11T07:41:59.360Z,5.33
2018-03-11T07:44:26.830Z,5.00
2018-03-11T07:46:54.293Z,5.57
2018-03-11T07:49:21.761Z,5.50
2018-03-11T07:51:49.213Z,5.17
2018-03-11T07:54:16.685Z,6.60
2018-03-11T07:56:44.147Z,22.03
2018-03-11T07:59:11.622Z,30.27
2018-03-11T08:01:39.078Z,20.23
2018-03-11T08:04:06.543Z,9.73
2018-03-11T08:06:34.778Z,6.30
2018-03-11T08:09:02.255Z,5.83
2018-03-11T08:11:29.706Z,5.63
2018-03-11T08:13:57.165Z,5.77
2018-03-11T08:16:24.613Z,6.30
2018-03-11T08:18:52.093Z,5.97
2018-03-11T08:21:19.561Z,6.73
2018-03-11T08:23:47.021Z,6.30
2018-03-11T08:26:14.485Z,6.00
2018-03-11T08:28:41.946Z,5.87
2018-03-11T08:31:17.496Z,5.70
2018-03-11T08:33:44.951Z,6.90
2018-03-11T08:36:12.420Z,6.70
2018-03-11T08:38:39.885Z,6.43
2018-03-11T08:41:07.371Z,7.03
2018-03-11T08:43:34.853Z,6.67
2018-03-11T08:46:03.091Z,7.53
2018-03-11T08:48:30.550Z,8.40
2018-03-11T08:50:58.020Z,8.10
2018-03-11T08:53:25.477Z,8.80
2018-03-11T08:55:52.960Z,8.23
2018-03-11T08:58:20.422Z,8.30
2018-03-11T09:00:47.889Z,8.77
2018-03-11T09:03:15.340Z,8.40
2018-03-11T09:05:42.810Z,8.60
2018-03-11T09:08:10.261Z,7.87
2018-03-11T09:13:32.373Z,8.30
2018-03-11T09:15:59.846Z,8.10
2018-03-11T09:18:27.321Z,7.83
2018-03-11T09:20:54.782Z,7.40
2018-03-11T09:23:22.233Z,7.10
2018-03-11T09:25:51.112Z,6.80
2018-03-11T09:28:18.556Z,6.70
2018-03-11T09:30:46.854Z,6.53
2018-03-11T09:33:14.321Z,7.37
2018-03-11T09:35:41.776Z,7.93
2018-03-11T09:38:09.251Z,10.83
2018-03-11T09:40:37.476Z,9.50
2018-03-11T09:43:04.927Z,7.70
2018-03-11T09:45:32.385Z,7.17
2018-03-11T09:47:59.836Z,8.40
2018-03-11T09:50:27.783Z,7.20
2018-03-11T09:52:56.576Z,7.40
2018-03-11T09:55:24.881Z,8.73
2018-03-11T09:57:52.352Z,9.57
2018-03-11T10:00:19.807Z,7.80
2018-03-11T10:02:47.284Z,7.50
2018-03-11T10:05:14.737Z,7.37
2018-03-11T10:07:42.210Z,7.53
2018-03-11T10:10:09.679Z,10.23
2018-03-11T10:12:37.154Z,11.60
2018-03-11T10:15:04.631Z,167.20
2018-03-11T10:17:32.862Z,16.40
2018-03-11T10:20:00.336Z,17.57
2018-03-11T10:22:27.802Z,9.77
2018-03-11T10:24:55.257Z,9.00
2018-03-11T10:27:31.124Z,10.27
2018-03-11T10:29:58.578Z,6.80
2018-03-11T10:32:26.037Z,6.57
2018-03-11T10:34:53.548Z,7.10
2018-03-11T10:37:21.015Z,9.87
2018-03-11T10:39:48.474Z,9.77
2018-03-11T10:42:16.698Z,8.30
2018-03-11T10:44:44.156Z,8.30
2018-03-11T10:47:17.319Z,7.93
2018-03-11T10:49:44.790Z,8.90
2018-03-11T10:52:12.254Z,10.23
2018-03-11T10:54:39.719Z,9.57
2018-03-11T10:57:07.181Z,10.17
2018-03-11T10:59:34.659Z,10.10
2018-03-11T11:02:07.688Z,8.03
2018-03-11T11:07:32.607Z,7.97
2018-03-11T11:10:00.054Z,9.37
2018-03-11T11:12:28.416Z,6.10
2018-03-11T11:14:55.866Z,10.20
2018-03-11T11:17:23.319Z,6.47
2018-03-11T11:19:50.770Z,5.37
2018-03-11T11:22:18.228Z,5.53
2018-03-11T11:24:45.689Z,5.87
2018-03-11T11:27:13.153Z,5.33
2018-03-11T11:29:40.613Z,6.50
2018-03-11T11:32:08.086Z,5.20
2018-03-11T11:34:35.544Z,5.10
2018-03-11T11:37:03.002Z,4.83
2018-03-11T11:39:30.465Z,3.90
2018-03-11T11:41:57.913Z,4.18
2018-03-11T11:44:25.381Z,4.57
2018-03-11T11:46:52.833Z,4.40
2018-03-11T11:49:21.054Z,3.97
2018-03-11T11:51:48.524Z,3.22
2018-03-11T11:54:15.977Z,4.70
2018-03-11T11:56:43.448Z,4.05
2018-03-11T11:59:10.913Z,4.47
2018-03-11T12:01:38.367Z,4.65
2018-03-11T12:04:05.829Z,3.62
2018-03-11T12:06:33.291Z,3.72
2018-03-11T12:09:00.756Z,3.80
2018-03-11T12:11:28.215Z,4.93
2018-03-11T12:13:55.681Z,4.45
2018-03-11T12:16:23.145Z,3.62
2018-03-11T12:18:50.605Z,3.70
2018-03-11T12:21:18.067Z,4.62
2018-03-11T12:23:45.558Z,3.87
2018-03-11T12:26:13.020Z,3.80
2018-03-11T12:28:40.504Z,3.75
2018-03-11T12:31:08.729Z,3.10
2018-03-11T12:33:36.179Z,3.70
2018-03-11T12:36:03.640Z,4.45
2018-03-11T12:38:31.099Z,4.62
2018-03-11T12:40:58.603Z,5.43
2018-03-11T12:43:26.038Z,5.57
2018-03-11T12:45:54.259Z,6.65
2018-03-11T12:48:21.728Z,7.25
2018-03-11T12:50:49.951Z,7.10
2018-03-11T12:53:17.405Z,6.72
2018-03-11T12:55:44.879Z,10.68
2018-03-11T12:58:12.336Z,9.05
2018-03-11T13:00:39.796Z,8.20
2018-03-11T13:03:07.268Z,7.95
2018-03-11T13:05:34.719Z,6.97
2018-03-11T13:08:02.224Z,6.75
2018-03-11T13:10:29.659Z,6.32
2018-03-11T13:12:57.105Z,7.00
2018-03-11T13:15:24.569Z,6.15
2018-03-11T13:18:10.788Z,6.00
2018-03-11T13:20:50.068Z,6.20
2018-03-11T13:23:18.297Z,6.10
2018-03-11T13:25:45.817Z,6.20
2018-03-11T13:31:14.017Z,5.80
2018-03-11T13:33:53.208Z,6.28
2018-03-11T13:36:20.686Z,5.60
2018-03-11T13:39:00.839Z,6.10
2018-03-11T13:41:29.078Z,5.22
2018-03-11T13:43:56.544Z,6.07
2018-03-11T13:46:35.919Z,5.57
2018-03-11T13:49:04.146Z,5.00
2018-03-11T13:51:43.450Z,4.78
2018-03-11T13:54:10.914Z,5.18
2018-03-11T13:56:38.392Z,6.70
2018-03-11T13:59:05.844Z,6.03
2018-03-11T14:01:33.306Z,6.53
2018-03-11T14:04:01.180Z,6.35
2018-03-11T14:06:28.636Z,7.90
2018-03-11T14:08:56.099Z,9.02
2018-03-11T14:11:23.590Z,7.50
2018-03-11T14:13:51.048Z,7.95
2018-03-11T14:16:18.507Z,7.33
2018-03-11T14:18:45.970Z,8.25
2018-03-11T14:21:13.433Z,8.48
2018-03-11T14:23:40.893Z,8.68
2018-03-11T14:26:08.361Z,9.52
2018-03-11T14:28:35.830Z,10.75
2018-03-11T14:31:03.293Z,8.40
2018-03-11T14:33:30.761Z,9.13
2018-03-11T14:35:58.243Z,10.57
2018-03-11T14:38:25.714Z,10.18
2018-03-11T14:40:53.954Z,10.80
2018-03-11T14:43:21.427Z,10.97
2018-03-11T14:45:48.907Z,10.82
2018-03-11T14:48:16.377Z,14.27
2018-03-11T14:50:44.663Z,14.57
2018-03-11T14:53:12.086Z,12.23
2018-03-11T14:55:39.560Z,11.60
2018-03-11T14:58:07.040Z,14.23
2018-03-11T15:00:34.511Z,18.23
2018-03-11T15:03:01.961Z,14.40
2018-03-11T15:05:29.451Z,13.43
2018-03-11T15:07:57.681Z,14.30
2018-03-11T15:10:25.157Z,12.83
2018-03-11T15:12:52.620Z,14.70
2018-03-11T15:15:20.095Z,15.03
2018-03-11T15:17:47.555Z,13.80
2018-03-11T15:20:15.006Z,15.10
2018-03-11T15:22:42.469Z,14.93
2018-03-11T15:25:09.940Z,13.13
2018-03-11T15:27:37.411Z,13.97
2018-03-11T15:30:04.875Z,16.73
2018-03-11T15:32:32.351Z,14.83
2018-03-11T15:35:00.580Z,13.37
2018-03-11T15:37:28.057Z,16.77
2018-03-11T15:39:55.521Z,14.53
2018-03-11T15:42:22.995Z,21.20
2018-03-11T15:44:50.462Z,32.37
2018-03-11T15:47:17.931Z,19.00
2018-03-11T15:49:45.389Z,18.20
2018-03-11T15:52:12.863Z,14.90
2018-03-11T15:54:41.090Z,13.73
2018-03-11T15:57:08.563Z,14.80
2018-03-11T15:59:36.033Z,13.03
2018-03-11T16:02:03.509Z,16.85
2018-03-11T16:04:30.985Z,13.67
2018-03-11T16:06:59.244Z,13.30
2018-03-11T16:09:26.702Z,13.25
2018-03-11T16:11:54.168Z,12.50
2018-03-11T16:14:21.637Z,14.13
2018-03-11T16:16:49.108Z,15.70
2018-03-11T16:19:16.586Z,13.43
2018-03-11T16:21:44.060Z,14.43
2018-03-11T16:24:12.286Z,14.10
2018-03-11T16:26:39.761Z,13.23
2018-03-11T16:29:07.221Z,12.37
2018-03-11T16:31:34.686Z,12.03
2018-03-11T16:34:02.197Z,11.93
2018-03-11T16:36:29.694Z,12.27
2018-03-11T16:38:57.166Z,13.37
2018-03-11T16:41:24.630Z,13.60
2018-03-11T16:43:52.147Z,15.77
2018-03-11T16:46:19.594Z,14.87
2018-03-11T16:48:47.833Z,13.73
2018-03-11T16:51:15.308Z,16.60
2018-03-11T16:53:44.803Z,17.00
2018-03-11T16:56:12.284Z,15.10
2018-03-11T16:58:39.748Z,14.57
2018-03-11T17:01:07.218Z,40.83
2018-03-11T17:03:34.709Z,211.57
2018-03-11T17:06:02.199Z,245.47
2018-03-11T17:08:29.674Z,31.97
2018-03-11T17:11:02.747Z,13.80
2018-03-11T17:13:30.229Z,14.10
2018-03-11T17:15:57.692Z,13.23
2018-03-11T17:18:25.160Z,14.57
2018-03-11T17:20:52.636Z,14.43
2018-03-11T17:23:20.107Z,15.67
2018-03-11T17:25:47.560Z,17.60
2018-03-11T17:28:15.051Z,20.53
2018-03-11T17:30:43.274Z,15.97
2018-03-11T17:33:10.751Z,18.33
2018-03-11T17:35:38.213Z,20.90
2018-03-11T17:38:05.716Z,20.37
2018-03-11T17:40:33.965Z,19.20
2018-03-11T17:43:01.450Z,16.80
2018-03-11T17:45:28.906Z,16.67
2018-03-11T17:47:56.371Z,15.60
2018-03-11T17:50:23.848Z,16.87
2018-03-11T17:52:52.088Z,14.97
2018-03-11T17:55:19.552Z,16.17
2018-03-11T17:57:47.017Z,16.17
2018-03-11T18:00:14.495Z,18.73
2018-03-11T18:02:41.952Z,26.30
2018-03-11T18:05:09.418Z,65.63
2018-03-11T18:07:36.886Z,61.37
2018-03-11T18:10:04.346Z,44.97
2018-03-11T18:12:31.877Z,38.30
2018-03-11T18:14:59.273Z,33.73
2018-03-11T18:17:26.744Z,27.87
2018-03-11T18:19:54.220Z,33.13
2018-03-11T18:22:22.451Z,30.83
2018-03-11T18:24:49.972Z,36.93
2018-03-11T18:27:17.392Z,34.57
2018-03-11T18:29:44.865Z,22.67
2018-03-11T18:35:21.934Z,21.80
2018-03-11T18:37:49.411Z,22.30
2018-03-11T18:40:16.886Z,20.63
2018-03-11T18:42:45.121Z,23.53
2018-03-11T18:45:12.592Z,24.73
2018-03-11T18:47:40.060Z,24.67
2018-03-11T18:50:07.533Z,21.63
2018-03-11T18:52:35.029Z,21.53
2018-03-11T18:55:03.272Z,21.10
2018-03-11T18:57:30.729Z,21.70
2018-03-11T18:59:58.218Z,36.37
2018-03-11T19:02:25.684Z,40.00
2018-03-11T19:04:53.155Z,36.73
2018-03-11T19:07:21.393Z,31.27
2018-03-11T19:09:48.878Z,31.07
2018-03-11T19:12:16.340Z,32.03
2018-03-11T19:14:43.806Z,38.57
2018-03-11T19:17:11.285Z,37.20
2018-03-11T19:19:39.527Z,29.73
2018-03-11T19:22:07.836Z,30.37
2018-03-11T19:24:35.305Z,30.13
2018-03-11T19:27:03.545Z,34.00
2018-03-11T19:29:31.009Z,33.23
2018-03-11T19:31:58.479Z,32.33
2018-03-11T19:34:26.023Z,32.17
2018-03-11T19:36:53.429Z,26.37
2018-03-11T19:39:20.915Z,27.47
2018-03-11T19:41:49.161Z,25.03
2018-03-11T19:44:16.630Z,24.37
2018-03-11T19:46:44.112Z,26.93
2018-03-11T19:49:14.245Z,29.37
2018-03-11T19:51:41.752Z,27.60
2018-03-11T19:54:09.218Z,27.93
2018-03-11T19:56:36.697Z,27.43
2018-03-11T19:59:04.155Z,33.53
2018-03-11T20:01:31.650Z,29.40
2018-03-11T20:04:19.260Z,29.83
2018-03-11T20:06:46.739Z,29.47
2018-03-11T20:09:14.979Z,31.47
2018-03-11T20:11:42.491Z,30.70
2018-03-11T20:14:09.964Z,27.20
2018-03-11T20:16:37.443Z,22.70
2018-03-11T20:19:04.895Z,24.37
2018-03-11T20:21:32.379Z,25.97
2018-03-11T20:24:00.599Z,28.27
2018-03-11T20:26:28.063Z,24.97
2018-03-11T20:28:56.303Z,23.60
2018-03-11T20:31:23.838Z,24.13
2018-03-11T20:33:51.249Z,21.67
2018-03-11T20:36:18.730Z,22.13
2018-03-11T20:38:46.964Z,23.23
2018-03-11T20:41:14.474Z,24.50
2018-03-11T20:46:40.909Z,28.63
2018-03-11T20:49:08.373Z,21.87
2018-03-11T20:51:35.838Z,26.87
2018-03-11T20:54:03.313Z,28.10
2018-03-11T20:56:31.563Z,22.13
2018-03-11T20:58:59.035Z,22.53
2018-03-11T21:01:26.498Z,24.73
2018-03-11T21:03:53.968Z,21.00
2018-03-11T21:06:21.430Z,20.87
2018-03-11T21:08:49.685Z,19.77
2018-03-11T21:11:17.140Z,20.30
2018-03-11T21:13:44.633Z,20.63
2018-03-11T21:16:12.096Z,22.10
2018-03-11T21:18:39.568Z,22.23
2018-03-11T21:21:11.723Z,21.90
2018-03-11T21:23:39.189Z,22.50
2018-03-11T21:26:06.664Z,21.80
2018-03-11T21:28:34.908Z,19.47
2018-03-11T21:31:02.365Z,19.03
2018-03-11T21:33:29.841Z,18.57
2018-03-11T21:35:57.312Z,18.77
2018-03-11T21:38:24.790Z,18.57
2018-03-11T21:40:52.257Z,18.17
2018-03-11T21:49:18.580Z,19.00
2018-03-11T21:51:46.045Z,18.80
2018-03-11T21:54:13.552Z,22.63
2018-03-11T21:56:41.023Z,23.03
2018-03-11T21:59:08.508Z,20.03
2018-03-11T22:01:35.970Z,18.33
2018-03-11T22:04:03.434Z,23.27
2018-03-11T22:06:30.906Z,19.90
2018-03-11T22:08:58.379Z,20.87
2018-03-11T22:11:25.841Z,28.70
2018-03-11T22:13:53.312Z,30.20
2018-03-11T22:16:20.784Z,27.90
2018-03-11T22:18:48.257Z,24.90
2018-03-11T22:21:16.518Z,23.97
2018-03-11T22:23:43.989Z,24.53
2018-03-11T22:26:12.215Z,22.83
2018-03-11T22:28:41.621Z,23.17
2018-03-11T22:31:09.091Z,23.77
2018-03-11T22:33:36.575Z,22.37
2018-03-11T22:36:04.038Z,21.63
2018-03-11T22:38:31.528Z,20.57
2018-03-11T22:40:59.765Z,21.03
2018-03-11T22:43:27.236Z,22.57
2018-03-11T22:45:54.703Z,23.17
2018-03-11T22:48:22.166Z,21.10
2018-03-11T22:50:49.648Z,21.80
2018-03-11T22:53:17.114Z,21.57
2018-03-11T22:55:44.593Z,20.87
2018-03-11T22:58:12.819Z,20.40
2018-03-11T23:00:40.297Z,18.80
2018-03-11T23:03:07.760Z,18.70
2018-03-11T23:05:35.247Z,18.50
2018-03-11T23:08:02.720Z,17.50
2018-03-11T23:10:30.187Z,17.37
2018-03-11T23:12:57.656Z,18.27
2018-03-11T23:15:25.129Z,17.50
2018-03-11T23:17:53.363Z,19.23
2018-03-11T23:20:20.856Z,17.87
2018-03-11T23:22:48.323Z,17.60
2018-03-11T23:25:15.790Z,18.50
2018-03-11T23:27:43.252Z,19.87
2018-03-11T23:30:11.500Z,18.27
2018-03-11T23:32:38.962Z,17.47
2018-03-11T23:35:06.428Z,18.47
2018-03-11T23:37:33.891Z,18.27
2018-03-11T23:40:01.381Z,18.87
2018-03-11T23:42:28.846Z,18.00
2018-03-11T23:44:56.314Z,18.73
2018-03-11T23:47:24.579Z,18.23
2018-03-11T23:49:52.020Z,18.83
2018-03-11T23:52:19.508Z,18.43
2018-03-11T23:54:46.973Z,17.87
2018-03-11T23:57:14.445Z,17.43
2018-03-11T23:59:42.680Z,17.07
